sensor_id;sensor_type;location;lat;lon;timestamp;noise_LAeq;noise_LA_min;noise_LA_max;noise_LA01;noise_LA95
40465;Laerm;30489;48.982;8.394;2023-04-01T00:00:03;39.53;37.32;40.98;;
40465;Laerm;30489;48.982;8.394;2023-04-01T00:02:14;39.49;37.32;41.22;;
40465;Laerm;30489;48.982;8.394;2023-04-01T00:04:25;39.52;37.52;41.06;;
40465;Laerm;30489;48.982;8.394;2023-04-01T00:06:35;39.50;37.32;41.14;;
40465;Laerm;30489;48.982;8.394;2023-04-01T00:08:46;39.50;37.32;41.30;;
40465;Laerm;30489;48.982;8.394;2023-04-01T00:10:56;39.50;37.70;41.14;;
40465;Laerm;30489;48.982;8.394;2023-04-01T00:13:07;39.49;37.52;41.14;;
40465;Laerm;30489;48.982;8.394;2023-04-01T00:15:17;39.49;37.52;41.06;;
40465;Laerm;30489;48.982;8.394;2023-04-01T00:17:27;39.54;37.32;41.82;;
40465;Laerm;30489;48.982;8.394;2023-04-01T00:19:38;39.49;37.70;41.14;;
40465;Laerm;30489;48.982;8.394;2023-04-01T00:21:48;39.48;37.52;41.22;;
40465;Laerm;30489;48.982;8.394;2023-04-01T00:23:58;39.47;37.32;41.06;;
40465;Laerm;30489;48.982;8.394;2023-04-01T00:26:09;39.47;37.70;41.14;;
40465;Laerm;30489;48.982;8.394;2023-04-01T00:28:19;39.46;37.52;41.22;;
40465;Laerm;30489;48.982;8.394;2023-04-01T00:30:30;39.48;37.32;41.68;;
40465;Laerm;30489;48.982;8.394;2023-04-01T00:32:40;39.46;37.52;40.98;;
40465;Laerm;30489;48.982;8.394;2023-04-01T00:34:50;39.46;37.32;40.98;;
40465;Laerm;30489;48.982;8.394;2023-04-01T00:37:01;39.44;37.32;41.14;;
40465;Laerm;30489;48.982;8.394;2023-04-01T00:39:12;39.45;37.32;41.22;;
40465;Laerm;30489;48.982;8.394;2023-04-01T00:41:22;39.47;36.69;41.14;;
40465;Laerm;30489;48.982;8.394;2023-04-01T00:43:32;39.45;37.70;41.30;;
40465;Laerm;30489;48.982;8.394;2023-04-01T00:45:43;39.47;37.70;41.06;;
40465;Laerm;30489;48.982;8.394;2023-04-01T00:47:53;39.45;37.32;41.06;;
40465;Laerm;30489;48.982;8.394;2023-04-01T00:50:04;39.44;37.32;41.06;;
40465;Laerm;30489;48.982;8.394;2023-04-01T00:52:19;39.45;37.32;41.22;;
40465;Laerm;30489;48.982;8.394;2023-04-01T00:54:30;39.44;36.91;40.98;;
40465;Laerm;30489;48.982;8.394;2023-04-01T00:56:42;39.43;37.32;41.06;;
40465;Laerm;30489;48.982;8.394;2023-04-01T00:58:56;39.41;37.32;41.22;;
40465;Laerm;30489;48.982;8.394;2023-04-01T01:01:08;39.44;37.52;41.14;;
40465;Laerm;30489;48.982;8.394;2023-04-01T01:03:19;39.42;37.52;41.22;;
40465;Laerm;30489;48.982;8.394;2023-04-01T01:05:37;39.44;37.52;41.22;;
40465;Laerm;30489;48.982;8.394;2023-04-01T01:07:55;39.42;36.91;41.06;;
40465;Laerm;30489;48.982;8.394;2023-04-01T01:10:09;39.43;37.52;41.06;;
40465;Laerm;30489;48.982;8.394;2023-04-01T01:12:21;39.42;37.32;40.98;;
40465;Laerm;30489;48.982;8.394;2023-04-01T01:14:48;39.39;37.52;41.14;;
40465;Laerm;30489;48.982;8.394;2023-04-01T01:17:48;39.40;36.91;41.06;;
40465;Laerm;30489;48.982;8.394;2023-04-01T01:22:06;39.42;37.32;41.22;;
40465;Laerm;30489;48.982;8.394;2023-04-01T01:35:50;39.39;37.12;41.06;;
40465;Laerm;30489;48.982;8.394;2023-04-01T01:38:03;39.40;37.52;41.06;;
40465;Laerm;30489;48.982;8.394;2023-04-01T01:40:14;39.40;37.32;41.22;;
40465;Laerm;30489;48.982;8.394;2023-04-01T01:42:25;39.40;37.32;40.89;;
40465;Laerm;30489;48.982;8.394;2023-04-01T01:44:36;39.39;37.70;41.19;;
40465;Laerm;30489;48.982;8.394;2023-04-01T01:46:47;39.39;36.91;41.30;;
40465;Laerm;30489;48.982;8.394;2023-04-01T01:48:58;39.38;37.12;41.38;;
40465;Laerm;30489;48.982;8.394;2023-04-01T01:51:10;39.39;37.32;41.22;;
40465;Laerm;30489;48.982;8.394;2023-04-01T01:53:20;39.39;37.52;41.06;;
40465;Laerm;30489;48.982;8.394;2023-04-01T01:55:31;39.42;37.52;41.46;;
40465;Laerm;30489;48.982;8.394;2023-04-01T01:57:42;39.46;37.32;40.96;;
40465;Laerm;30489;48.982;8.394;2023-04-01T01:59:55;39.46;37.32;41.06;;
40465;Laerm;30489;48.982;8.394;2023-04-01T02:02:06;39.48;36.20;41.30;;
40465;Laerm;30489;48.982;8.394;2023-04-01T02:04:19;39.49;37.70;42.47;;
40465;Laerm;30489;48.982;8.394;2023-04-01T02:06:32;39.49;37.52;41.30;;
40465;Laerm;30489;48.982;8.394;2023-04-01T02:08:57;39.51;37.35;41.30;;
40465;Laerm;30489;48.982;8.394;2023-04-01T02:11:10;39.53;37.53;41.89;;
40465;Laerm;30489;48.982;8.394;2023-04-01T02:15:50;39.55;37.52;41.30;;
40465;Laerm;30489;48.982;8.394;2023-04-01T02:18:05;39.55;37.88;41.22;;
40465;Laerm;30489;48.982;8.394;2023-04-01T02:20:17;39.59;37.32;41.82;;
40465;Laerm;30489;48.982;8.394;2023-04-01T02:22:30;39.62;37.70;41.30;;
40465;Laerm;30489;48.982;8.394;2023-04-01T02:24:41;39.65;37.52;42.09;;
40465;Laerm;30489;48.982;8.394;2023-04-01T02:26:52;39.64;37.88;41.06;;
40465;Laerm;30489;48.982;8.394;2023-04-01T02:29:02;39.64;37.70;41.55;;
40465;Laerm;30489;48.982;8.394;2023-04-01T02:31:14;39.64;37.70;41.30;;
40465;Laerm;30489;48.982;8.394;2023-04-01T02:33:26;39.65;37.32;41.22;;
40465;Laerm;30489;48.982;8.394;2023-04-01T02:35:37;39.65;37.70;41.14;;
40465;Laerm;30489;48.982;8.394;2023-04-01T02:37:48;39.66;37.70;41.14;;
40465;Laerm;30489;48.982;8.394;2023-04-01T02:40:03;39.67;37.52;41.46;;
40465;Laerm;30489;48.982;8.394;2023-04-01T02:42:16;39.65;37.53;41.46;;
40465;Laerm;30489;48.982;8.394;2023-04-01T02:44:26;39.66;37.70;41.22;;
40465;Laerm;30489;48.982;8.394;2023-04-01T02:46:36;39.68;37.87;41.22;;
40465;Laerm;30489;48.982;8.394;2023-04-01T02:48:47;39.68;37.70;41.46;;
40465;Laerm;30489;48.982;8.394;2023-04-01T02:50:57;39.67;37.70;41.30;;
40465;Laerm;30489;48.982;8.394;2023-04-01T02:53:07;39.66;37.88;41.14;;
40465;Laerm;30489;48.982;8.394;2023-04-01T02:55:18;39.66;37.88;41.22;;
40465;Laerm;30489;48.982;8.394;2023-04-01T02:57:28;39.68;37.52;41.14;;
40465;Laerm;30489;48.982;8.394;2023-04-01T02:59:39;39.69;37.70;41.38;;
40465;Laerm;30489;48.982;8.394;2023-04-01T03:01:49;39.66;38.05;41.22;;
40465;Laerm;30489;48.982;8.394;2023-04-01T03:03:59;39.68;37.52;41.19;;
40465;Laerm;30489;48.982;8.394;2023-04-01T03:06:10;39.67;37.70;41.30;;
40465;Laerm;30489;48.982;8.394;2023-04-01T03:08:21;39.68;37.52;41.38;;
40465;Laerm;30489;48.982;8.394;2023-04-01T03:10:31;39.67;37.70;43.19;;
40465;Laerm;30489;48.982;8.394;2023-04-01T03:12:42;39.68;37.88;41.14;;
40465;Laerm;30489;48.982;8.394;2023-04-01T03:14:52;39.69;37.52;41.14;;
40465;Laerm;30489;48.982;8.394;2023-04-01T03:17:02;39.68;37.70;41.30;;
40465;Laerm;30489;48.982;8.394;2023-04-01T03:19:12;39.71;37.88;41.22;;
40465;Laerm;30489;48.982;8.394;2023-04-01T03:21:23;39.70;37.70;41.30;;
40465;Laerm;30489;48.982;8.394;2023-04-01T03:23:33;39.71;37.70;41.14;;
40465;Laerm;30489;48.982;8.394;2023-04-01T03:25:43;39.71;37.70;41.22;;
40465;Laerm;30489;48.982;8.394;2023-04-01T03:27:54;39.71;37.52;41.22;;
40465;Laerm;30489;48.982;8.394;2023-04-01T03:30:04;39.73;37.88;41.22;;
40465;Laerm;30489;48.982;8.394;2023-04-01T03:32:14;39.78;38.05;42.03;;
40465;Laerm;30489;48.982;8.394;2023-04-01T03:34:25;39.77;38.05;41.89;;
40465;Laerm;30489;48.982;8.394;2023-04-01T03:36:36;39.75;38.05;41.38;;
40465;Laerm;30489;48.982;8.394;2023-04-01T03:38:46;39.76;38.05;41.53;;
40465;Laerm;30489;48.982;8.394;2023-04-01T03:40:56;39.77;38.21;41.38;;
40465;Laerm;30489;48.982;8.394;2023-04-01T03:43:06;39.77;37.88;41.38;;
40465;Laerm;30489;48.982;8.394;2023-04-01T03:45:18;39.77;37.70;41.22;;
40465;Laerm;30489;48.982;8.394;2023-04-01T03:47:28;39.77;37.88;41.46;;
40465;Laerm;30489;48.982;8.394;2023-04-01T03:49:38;39.77;37.88;41.48;;
40465;Laerm;30489;48.982;8.394;2023-04-01T03:51:49;39.80;38.05;41.38;;
40465;Laerm;30489;48.982;8.394;2023-04-01T03:53:59;39.80;38.05;41.38;;
40465;Laerm;30489;48.982;8.394;2023-04-01T03:56:10;39.80;37.88;41.22;;
40465;Laerm;30489;48.982;8.394;2023-04-01T03:58:21;39.85;37.88;42.65;;
40465;Laerm;30489;48.982;8.394;2023-04-01T04:00:31;39.81;37.88;41.38;;
40465;Laerm;30489;48.982;8.394;2023-04-01T04:02:42;39.80;38.05;41.30;;
40465;Laerm;30489;48.982;8.394;2023-04-01T04:04:52;39.80;37.88;41.46;;
40465;Laerm;30489;48.982;8.394;2023-04-01T04:07:02;39.81;37.88;41.38;;
40465;Laerm;30489;48.982;8.394;2023-04-01T04:09:13;39.84;38.05;41.38;;
40465;Laerm;30489;48.982;8.394;2023-04-01T04:11:23;39.86;38.05;44.39;;
40465;Laerm;30489;48.982;8.394;2023-04-01T04:13:34;39.82;38.05;41.38;;
40465;Laerm;30489;48.982;8.394;2023-04-01T04:15:44;39.82;37.88;43.29;;
40465;Laerm;30489;48.982;8.394;2023-04-01T04:17:54;39.84;37.88;43.09;;
40465;Laerm;30489;48.982;8.394;2023-04-01T04:20:05;39.81;38.21;41.30;;
40465;Laerm;30489;48.982;8.394;2023-04-01T04:22:15;39.80;38.21;41.46;;
40465;Laerm;30489;48.982;8.394;2023-04-01T04:24:25;39.82;37.70;42.16;;
40465;Laerm;30489;48.982;8.394;2023-04-01T04:26:36;39.81;38.05;41.22;;
40465;Laerm;30489;48.982;8.394;2023-04-01T04:28:46;39.80;37.88;41.61;;
40465;Laerm;30489;48.982;8.394;2023-04-01T04:30:56;39.85;38.21;42.41;;
40465;Laerm;30489;48.982;8.394;2023-04-01T04:33:07;39.82;38.21;41.61;;
40465;Laerm;30489;48.982;8.394;2023-04-01T04:35:17;39.81;37.87;41.19;;
40465;Laerm;30489;48.982;8.394;2023-04-01T04:37:27;39.83;38.05;41.53;;
40465;Laerm;30489;48.982;8.394;2023-04-01T04:39:38;39.84;37.52;41.30;;
40465;Laerm;30489;48.982;8.394;2023-04-01T04:41:48;39.83;38.05;41.46;;
40465;Laerm;30489;48.982;8.394;2023-04-01T04:43:58;39.83;38.05;41.75;;
40465;Laerm;30489;48.982;8.394;2023-04-01T04:46:09;39.85;38.05;41.68;;
40465;Laerm;30489;48.982;8.394;2023-04-01T04:48:19;39.84;38.05;41.30;;
40465;Laerm;30489;48.982;8.394;2023-04-01T04:50:30;39.88;38.05;41.96;;
40465;Laerm;30489;48.982;8.394;2023-04-01T04:52:40;39.84;38.05;41.61;;
40465;Laerm;30489;48.982;8.394;2023-04-01T04:54:50;39.83;38.05;41.30;;
40465;Laerm;30489;48.982;8.394;2023-04-01T04:57:00;39.85;37.70;41.30;;
40465;Laerm;30489;48.982;8.394;2023-04-01T04:59:11;39.84;38.05;41.61;;
40465;Laerm;30489;48.982;8.394;2023-04-01T05:01:22;39.84;38.05;41.53;;
40465;Laerm;30489;48.982;8.394;2023-04-01T05:03:32;39.87;37.88;41.46;;
40465;Laerm;30489;48.982;8.394;2023-04-01T05:05:48;39.86;38.21;41.22;;
40465;Laerm;30489;48.982;8.394;2023-04-01T05:07:58;39.85;37.88;41.75;;
40465;Laerm;30489;48.982;8.394;2023-04-01T05:10:09;39.88;37.88;42.13;;
40465;Laerm;30489;48.982;8.394;2023-04-01T05:12:19;39.91;37.70;41.53;;
40465;Laerm;30489;48.982;8.394;2023-04-01T05:14:29;39.90;38.21;41.89;;
40465;Laerm;30489;48.982;8.394;2023-04-01T05:16:40;39.91;38.05;41.38;;
40465;Laerm;30489;48.982;8.394;2023-04-01T05:18:50;39.91;38.21;41.22;;
40465;Laerm;30489;48.982;8.394;2023-04-01T05:21:00;39.90;38.05;41.30;;
40465;Laerm;30489;48.982;8.394;2023-04-01T05:23:10;39.91;38.21;41.38;;
40465;Laerm;30489;48.982;8.394;2023-04-01T05:25:22;39.91;38.52;41.68;;
40465;Laerm;30489;48.982;8.394;2023-04-01T05:27:32;39.96;38.21;43.54;;
40465;Laerm;30489;48.982;8.394;2023-04-01T05:29:42;40.00;38.52;42.76;;
40465;Laerm;30489;48.982;8.394;2023-04-01T05:31:53;39.97;38.05;43.19;;
40465;Laerm;30489;48.982;8.394;2023-04-01T05:34:03;39.92;37.88;41.38;;
40465;Laerm;30489;48.982;8.394;2023-04-01T05:36:14;39.89;38.05;41.89;;
40465;Laerm;30489;48.982;8.394;2023-04-01T05:38:25;39.81;37.88;41.38;;
40465;Laerm;30489;48.982;8.394;2023-04-01T05:40:35;39.79;37.88;41.53;;
40465;Laerm;30489;48.982;8.394;2023-04-01T05:42:45;39.70;37.70;41.30;;
40465;Laerm;30489;48.982;8.394;2023-04-01T05:44:55;39.58;37.52;43.14;;
40465;Laerm;30489;48.982;8.394;2023-04-01T05:47:05;38.94;36.20;52.94;;
40465;Laerm;30489;48.982;8.394;2023-04-01T05:49:16;38.85;36.20;40.71;;
40465;Laerm;30489;48.982;8.394;2023-04-01T05:51:26;39.13;36.69;42.93;;
40465;Laerm;30489;48.982;8.394;2023-04-01T05:53:36;39.20;37.12;42.19;;
40465;Laerm;30489;48.982;8.394;2023-04-01T05:55:46;39.16;36.91;41.38;;
40465;Laerm;30489;48.982;8.394;2023-04-01T05:57:56;39.18;37.12;41.96;;
40465;Laerm;30489;48.982;8.394;2023-04-01T06:00:07;39.15;36.91;43.99;;
40465;Laerm;30489;48.982;8.394;2023-04-01T06:02:17;39.15;36.45;47.74;;
40465;Laerm;30489;48.982;8.394;2023-04-01T06:04:28;39.08;36.98;42.47;;
40465;Laerm;30489;48.982;8.394;2023-04-01T06:06:42;39.14;37.12;42.29;;
40465;Laerm;30489;48.982;8.394;2023-04-01T06:08:53;39.09;36.91;45.86;;
40465;Laerm;30489;48.982;8.394;2023-04-01T06:11:12;39.09;36.91;42.35;;
40465;Laerm;30489;48.982;8.394;2023-04-01T06:23:09;39.03;36.91;42.53;;
40465;Laerm;30489;48.982;8.394;2023-04-01T06:25:38;39.06;36.45;44.69;;
40465;Laerm;30489;48.982;8.394;2023-04-01T06:37:48;39.13;36.91;57.39;;
40465;Laerm;30489;48.982;8.394;2023-04-01T06:42:33;39.02;36.91;46.57;;
40465;Laerm;30489;48.982;8.394;2023-04-01T06:47:04;39.01;36.91;41.75;;
40465;Laerm;30489;48.982;8.394;2023-04-01T06:56:17;39.02;36.91;41.53;;
40465;Laerm;30489;48.982;8.394;2023-04-01T06:58:34;39.04;36.91;42.76;;
40465;Laerm;30489;48.982;8.394;2023-04-01T07:00:46;38.99;36.20;42.41;;
40465;Laerm;30489;48.982;8.394;2023-04-01T07:05:28;38.98;36.45;40.62;;
40465;Laerm;30489;48.982;8.394;2023-04-01T07:07:41;39.00;36.45;41.38;;
40465;Laerm;30489;48.982;8.394;2023-04-01T07:09:55;38.97;36.69;40.89;;
40465;Laerm;30489;48.982;8.394;2023-04-01T07:12:15;38.99;36.69;42.35;;
40465;Laerm;30489;48.982;8.394;2023-04-01T07:14:35;38.96;36.45;41.96;;
40465;Laerm;30489;48.982;8.394;2023-04-01T07:21:36;38.95;36.69;42.59;;
40465;Laerm;30489;48.982;8.394;2023-04-01T07:23:50;38.91;36.45;40.80;;
40465;Laerm;30489;48.982;8.394;2023-04-01T07:26:15;38.90;36.20;40.71;;
40465;Laerm;30489;48.982;8.394;2023-04-01T07:28:29;38.92;36.45;41.46;;
40465;Laerm;30489;48.982;8.394;2023-04-01T07:33:19;38.85;36.20;40.98;;
40465;Laerm;30489;48.982;8.394;2023-04-01T07:35:39;38.86;36.45;40.98;;
40465;Laerm;30489;48.982;8.394;2023-04-01T07:40:23;38.84;35.66;40.71;;
40465;Laerm;30489;48.982;8.394;2023-04-01T07:54:28;38.70;36.20;40.53;;
40465;Laerm;30489;48.982;8.394;2023-04-01T07:56:49;38.74;36.20;42.41;;
40465;Laerm;30489;48.982;8.394;2023-04-01T08:06:02;38.75;36.45;40.89;;
40465;Laerm;30489;48.982;8.394;2023-04-01T08:08:23;38.74;36.45;40.71;;
40465;Laerm;30489;48.982;8.394;2023-04-01T08:15:28;38.76;36.20;40.62;;
40465;Laerm;30489;48.982;8.394;2023-04-01T08:17:47;38.75;36.20;42.03;;
40465;Laerm;30489;48.982;8.394;2023-04-01T08:22:23;38.76;35.94;40.62;;
40465;Laerm;30489;48.982;8.394;2023-04-01T08:24:42;38.76;36.20;40.89;;
40465;Laerm;30489;48.982;8.394;2023-04-01T08:26:54;38.76;36.45;40.89;;
40465;Laerm;30489;48.982;8.394;2023-04-01T08:31:26;38.75;35.94;40.71;;
40465;Laerm;30489;48.982;8.394;2023-04-01T08:33:40;38.76;36.20;45.20;;
40465;Laerm;30489;48.982;8.394;2023-04-01T08:35:59;38.79;36.20;49.71;;
40465;Laerm;30489;48.982;8.394;2023-04-01T08:38:34;38.83;36.20;41.82;;
40465;Laerm;30489;48.982;8.394;2023-04-01T08:41:01;38.80;35.94;40.62;;
40465;Laerm;30489;48.982;8.394;2023-04-01T08:43:30;38.78;35.94;44.23;;
40465;Laerm;30489;48.982;8.394;2023-04-01T08:59:49;38.77;36.20;46.18;;
40465;Laerm;30489;48.982;8.394;2023-04-01T09:04:37;38.80;35.94;40.98;;
40465;Laerm;30489;48.982;8.394;2023-04-01T09:06:52;38.77;36.20;40.53;;
40465;Laerm;30489;48.982;8.394;2023-04-01T09:09:09;38.79;36.45;40.80;;
40465;Laerm;30489;48.982;8.394;2023-04-01T09:11:27;38.74;36.10;40.89;;
40465;Laerm;30489;48.982;8.394;2023-04-01T09:16:18;38.82;36.45;42.71;;
40465;Laerm;30489;48.982;8.394;2023-04-01T09:37:17;38.78;36.45;40.89;;
40465;Laerm;30489;48.982;8.394;2023-04-01T09:39:38;38.76;36.45;40.62;;
40465;Laerm;30489;48.982;8.394;2023-04-01T09:41:57;38.76;36.45;44.03;;
40465;Laerm;30489;48.982;8.394;2023-04-01T09:44:23;38.78;36.20;40.80;;
40465;Laerm;30489;48.982;8.394;2023-04-01T09:58:41;38.81;36.45;40.80;;
40465;Laerm;30489;48.982;8.394;2023-04-01T10:26:24;38.77;36.20;41.06;;
40465;Laerm;30489;48.982;8.394;2023-04-01T10:28:49;38.85;36.45;42.59;;
40465;Laerm;30489;48.982;8.394;2023-04-01T10:38:36;38.82;36.69;40.98;;
40465;Laerm;30489;48.982;8.394;2023-04-01T10:40:57;38.83;36.20;41.30;;
40465;Laerm;30489;48.982;8.394;2023-04-01T10:59:59;38.81;36.45;40.62;;
40465;Laerm;30489;48.982;8.394;2023-04-01T11:02:44;38.80;36.20;41.06;;
40465;Laerm;30489;48.982;8.394;2023-04-01T11:12:09;38.75;36.45;41.14;;
40465;Laerm;30489;48.982;8.394;2023-04-01T11:19:45;38.73;35.94;40.89;;
40465;Laerm;30489;48.982;8.394;2023-04-01T11:22:12;38.74;35.36;40.80;;
40465;Laerm;30489;48.982;8.394;2023-04-01T11:29:33;38.74;35.94;40.53;;
40465;Laerm;30489;48.982;8.394;2023-04-01T11:33:34;38.70;36.45;41.14;;
40465;Laerm;30489;48.982;8.394;2023-04-01T11:40:31;38.76;36.45;40.98;;
40465;Laerm;30489;48.982;8.394;2023-04-01T11:42:47;38.74;36.20;40.98;;
40465;Laerm;30489;48.982;8.394;2023-04-01T11:57:05;38.78;36.20;41.06;;
40465;Laerm;30489;48.982;8.394;2023-04-01T12:00:02;38.83;35.66;43.90;;
40465;Laerm;30489;48.982;8.394;2023-04-01T12:02:03;38.84;36.45;41.61;;
40465;Laerm;30489;48.982;8.394;2023-04-01T12:04:27;38.70;36.20;40.89;;
40465;Laerm;30489;48.982;8.394;2023-04-01T12:11:17;38.73;35.94;42.22;;
40465;Laerm;30489;48.982;8.394;2023-04-01T12:13:40;38.72;36.20;47.46;;
40465;Laerm;30489;48.982;8.394;2023-04-01T12:22:43;38.70;36.20;40.62;;
40465;Laerm;30489;48.982;8.394;2023-04-01T12:27:22;38.68;35.94;40.71;;
40465;Laerm;30489;48.982;8.394;2023-04-01T12:32:09;38.67;35.66;40.71;;
40465;Laerm;30489;48.982;8.394;2023-04-01T12:34:48;38.70;35.66;40.80;;
40465;Laerm;30489;48.982;8.394;2023-04-01T12:37:20;38.67;35.94;40.80;;
40465;Laerm;30489;48.982;8.394;2023-04-01T12:39:44;38.65;35.94;40.62;;
40465;Laerm;30489;48.982;8.394;2023-04-01T12:42:03;38.63;35.66;40.43;;
40465;Laerm;30489;48.982;8.394;2023-04-01T12:44:37;38.65;36.10;40.62;;
40465;Laerm;30489;48.982;8.394;2023-04-01T12:52:10;38.71;35.94;41.14;;
40465;Laerm;30489;48.982;8.394;2023-04-01T13:03:56;38.70;35.94;40.62;;
40465;Laerm;30489;48.982;8.394;2023-04-01T13:08:55;38.65;36.20;40.71;;
40465;Laerm;30489;48.982;8.394;2023-04-01T13:29:57;38.70;36.20;41.06;;
40465;Laerm;30489;48.982;8.394;2023-04-01T13:39:01;38.75;36.20;48.54;;
40465;Laerm;30489;48.982;8.394;2023-04-01T13:43:45;38.72;35.36;40.98;;
40465;Laerm;30489;48.982;8.394;2023-04-01T13:55:27;38.72;36.20;40.71;;
40465;Laerm;30489;48.982;8.394;2023-04-01T13:59:59;38.71;36.20;40.53;;
40465;Laerm;30489;48.982;8.394;2023-04-01T14:05:02;38.72;35.66;40.80;;
40465;Laerm;30489;48.982;8.394;2023-04-01T14:12:29;38.76;36.45;40.71;;
40465;Laerm;30489;48.982;8.394;2023-04-01T14:14:56;38.74;35.94;40.71;;
40465;Laerm;30489;48.982;8.394;2023-04-01T14:19:31;38.76;35.94;41.06;;
40465;Laerm;30489;48.982;8.394;2023-04-01T14:24:23;38.79;35.66;40.71;;
40465;Laerm;30489;48.982;8.394;2023-04-01T14:26:57;38.71;35.86;40.71;;
40465;Laerm;30489;48.982;8.394;2023-04-01T14:38:42;38.70;36.20;40.71;;
40465;Laerm;30489;48.982;8.394;2023-04-01T14:45:50;38.71;36.20;40.80;;
40465;Laerm;30489;48.982;8.394;2023-04-01T14:50:17;38.75;36.20;40.80;;
40465;Laerm;30489;48.982;8.394;2023-04-01T14:52:32;38.73;35.94;40.89;;
40465;Laerm;30489;48.982;8.394;2023-04-01T14:54:46;38.73;36.20;40.89;;
40465;Laerm;30489;48.982;8.394;2023-04-01T14:57:15;38.74;35.94;40.80;;
40465;Laerm;30489;48.982;8.394;2023-04-01T14:59:27;38.72;33.90;40.80;;
40465;Laerm;30489;48.982;8.394;2023-04-01T15:01:41;38.75;36.45;41.06;;
40465;Laerm;30489;48.982;8.394;2023-04-01T15:08:37;38.69;35.94;40.71;;
40465;Laerm;30489;48.982;8.394;2023-04-01T15:15:25;38.73;36.20;40.71;;
40465;Laerm;30489;48.982;8.394;2023-04-01T15:17:45;38.72;36.20;40.89;;
40465;Laerm;30489;48.982;8.394;2023-04-01T15:25:15;38.73;35.66;40.62;;
40465;Laerm;30489;48.982;8.394;2023-04-01T15:27:20;38.73;36.20;40.62;;
40465;Laerm;30489;48.982;8.394;2023-04-01T16:09:03;38.75;36.45;40.89;;
40465;Laerm;30489;48.982;8.394;2023-04-01T16:11:19;38.72;35.94;40.62;;
40465;Laerm;30489;48.982;8.394;2023-04-01T16:13:42;38.70;35.86;40.71;;
40465;Laerm;30489;48.982;8.394;2023-04-01T16:20:51;38.75;36.45;40.71;;
40465;Laerm;30489;48.982;8.394;2023-04-01T16:23:18;38.76;35.94;40.71;;
40465;Laerm;30489;48.982;8.394;2023-04-01T16:25:33;38.76;36.20;40.79;;
40465;Laerm;30489;48.982;8.394;2023-04-01T16:27:49;38.72;36.20;40.71;;
40465;Laerm;30489;48.982;8.394;2023-04-01T16:32:30;38.73;36.20;40.53;;
40465;Laerm;30489;48.982;8.394;2023-04-01T16:36:58;38.77;35.94;40.62;;
40465;Laerm;30489;48.982;8.394;2023-04-01T16:39:22;38.77;36.45;40.71;;
40465;Laerm;30489;48.982;8.394;2023-04-01T16:41:36;38.81;35.94;41.53;;
40465;Laerm;30489;48.982;8.394;2023-04-01T16:43:50;38.83;36.45;40.53;;
40465;Laerm;30489;48.982;8.394;2023-04-01T16:48:52;38.80;36.45;40.71;;
40465;Laerm;30489;48.982;8.394;2023-04-01T16:51:09;38.76;35.94;40.80;;
40465;Laerm;30489;48.982;8.394;2023-04-01T16:55:43;38.80;36.20;41.68;;
40465;Laerm;30489;48.982;8.394;2023-04-01T16:57:57;38.82;36.20;40.62;;
40465;Laerm;30489;48.982;8.394;2023-04-01T17:00:17;38.76;35.94;40.80;;
40465;Laerm;30489;48.982;8.394;2023-04-01T17:02:35;38.74;36.45;40.71;;
40465;Laerm;30489;48.982;8.394;2023-04-01T17:07:05;38.80;36.45;40.71;;
40465;Laerm;30489;48.982;8.394;2023-04-01T17:09:33;38.81;36.45;40.88;;
40465;Laerm;30489;48.982;8.394;2023-04-01T17:12:04;38.76;36.20;40.89;;
40465;Laerm;30489;48.982;8.394;2023-04-01T17:14:32;38.77;35.86;40.80;;
40465;Laerm;30489;48.982;8.394;2023-04-01T17:26:33;38.73;36.45;40.53;;
40465;Laerm;30489;48.982;8.394;2023-04-01T17:28:51;38.73;35.66;40.79;;
40465;Laerm;30489;48.982;8.394;2023-04-01T17:45:56;38.78;36.20;40.80;;
40465;Laerm;30489;48.982;8.394;2023-04-01T17:55:45;38.81;35.36;40.71;;
40465;Laerm;30489;48.982;8.394;2023-04-01T17:58:08;38.75;35.66;40.80;;
40465;Laerm;30489;48.982;8.394;2023-04-01T18:05:20;38.81;36.20;40.80;;
40465;Laerm;30489;48.982;8.394;2023-04-01T18:17:18;38.74;36.20;40.62;;
40465;Laerm;30489;48.982;8.394;2023-04-01T18:19:39;38.75;36.45;40.53;;
40465;Laerm;30489;48.982;8.394;2023-04-01T18:22:09;38.78;35.66;40.98;;
40465;Laerm;30489;48.982;8.394;2023-04-01T18:24:28;38.73;36.20;40.98;;
40465;Laerm;30489;48.982;8.394;2023-04-01T18:26:42;38.73;36.20;40.62;;
40465;Laerm;30489;48.982;8.394;2023-04-01T18:31:24;38.74;35.66;40.80;;
40465;Laerm;30489;48.982;8.394;2023-04-01T18:39:00;38.73;36.20;40.62;;
40465;Laerm;30489;48.982;8.394;2023-04-01T18:41:55;38.71;36.45;40.53;;
40465;Laerm;30489;48.982;8.394;2023-04-01T18:43:51;38.70;36.20;40.89;;
40465;Laerm;30489;48.982;8.394;2023-04-01T18:46:16;38.71;35.94;40.80;;
40465;Laerm;30489;48.982;8.394;2023-04-01T18:48:49;38.71;35.94;40.53;;
40465;Laerm;30489;48.982;8.394;2023-04-01T18:51:16;38.74;36.20;40.96;;
40465;Laerm;30489;48.982;8.394;2023-04-01T18:53:39;38.74;35.94;40.43;;
40465;Laerm;30489;48.982;8.394;2023-04-01T18:55:52;38.74;36.56;40.53;;
40465;Laerm;30489;48.982;8.394;2023-04-01T18:58:12;38.74;36.45;41.30;;
40465;Laerm;30489;48.982;8.394;2023-04-01T19:00:36;38.74;36.20;40.45;;
40465;Laerm;30489;48.982;8.394;2023-04-01T19:02:56;38.75;36.20;40.62;;
40465;Laerm;30489;48.982;8.394;2023-04-01T19:05:12;38.75;36.20;40.89;;
40465;Laerm;30489;48.982;8.394;2023-04-01T19:09:47;38.74;36.20;40.62;;
40465;Laerm;30489;48.982;8.394;2023-04-01T19:14:14;38.72;36.20;40.80;;
40465;Laerm;30489;48.982;8.394;2023-04-01T19:21:39;38.74;36.20;40.53;;
40465;Laerm;30489;48.982;8.394;2023-04-01T19:26:32;38.75;36.20;40.62;;
40465;Laerm;30489;48.982;8.394;2023-04-01T19:36:29;38.76;36.20;40.71;;
40465;Laerm;30489;48.982;8.394;2023-04-01T19:42:53;38.80;36.45;40.89;;
40465;Laerm;30489;48.982;8.394;2023-04-01T19:49:50;38.80;36.45;40.80;;
40465;Laerm;30489;48.982;8.394;2023-04-01T19:52:12;38.79;36.45;40.98;;
40465;Laerm;30489;48.982;8.394;2023-04-01T19:56:47;38.85;36.20;40.80;;
40465;Laerm;30489;48.982;8.394;2023-04-01T19:59:03;38.84;35.36;40.71;;
40465;Laerm;30489;48.982;8.394;2023-04-01T20:01:22;38.81;36.20;40.98;;
40465;Laerm;30489;48.982;8.394;2023-04-01T20:03:41;38.83;36.20;40.89;;
40465;Laerm;30489;48.982;8.394;2023-04-01T20:06:02;38.84;36.20;40.62;;
40465;Laerm;30489;48.982;8.394;2023-04-01T20:10:45;38.90;36.56;40.71;;
40465;Laerm;30489;48.982;8.394;2023-04-01T20:17:46;38.83;36.69;40.80;;
40465;Laerm;30489;48.982;8.394;2023-04-01T20:22:20;38.85;36.45;40.89;;
40465;Laerm;30489;48.982;8.394;2023-04-01T20:24:37;38.86;36.20;40.89;;
40465;Laerm;30489;48.982;8.394;2023-04-01T20:26:58;38.83;36.56;40.79;;
40465;Laerm;30489;48.982;8.394;2023-04-01T20:36:23;38.85;36.20;41.22;;
40465;Laerm;30489;48.982;8.394;2023-04-01T20:43:35;38.85;36.45;40.80;;
40465;Laerm;30489;48.982;8.394;2023-04-01T20:46:11;38.83;36.69;40.80;;
40465;Laerm;30489;48.982;8.394;2023-04-01T20:54:10;38.91;36.45;41.06;;
40465;Laerm;30489;48.982;8.394;2023-04-01T20:56:15;38.88;36.45;40.80;;
40465;Laerm;30489;48.982;8.394;2023-04-01T21:05:32;38.88;36.45;40.71;;
40465;Laerm;30489;48.982;8.394;2023-04-01T21:07:55;38.81;36.69;40.80;;
40465;Laerm;30489;48.982;8.394;2023-04-01T21:10:51;38.84;36.20;40.71;;
40465;Laerm;30489;48.982;8.394;2023-04-01T21:12:51;38.82;36.20;40.62;;